Port Clarence, Alaska
Current Conditions -  °F | °C
As of 8:33 AM on Saturday 25 Oct 2014 (Local Time) from PATE Reporting Station
Light Snow Light Snow  
Wind Chill: 25°   Ceiling: 700
Heat Index: 34°   Visibility: 1.7mi
Dew Point: 32°   Wind: 13mph
Humidity: 93%   Direction: 230°SW
Pressure: 29.47"   Gusts: NA
Location:  65.26°N, 166.85°W
Report Text: PATE 251633Z AUTO 23011KT 1 3/4SM -SN BR OVC007 01/00 A2947 RMK AO2 UPE10RAB10E14SNB14 CIG 004V008 P0001 FZRANO
Loading
Personal Weather Stations






























Interactive Weather Map
Tropical Storm Tracking
New forecast layout! Learn more

10-Day Weather Forecast

Advertisements
Track Severe Weather on mobile